sensor_id;sensor_type;location;lat;lon;timestamp;temperature;humidity
51175;DHT22;37240;50.104;20.010;2023-02-28T00:04:52;3.00;92.40
51175;DHT22;37240;50.104;20.010;2023-02-28T00:09:53;3.00;92.50
51175;DHT22;37240;50.104;20.010;2023-02-28T00:14:54;3.10;92.90
51175;DHT22;37240;50.104;20.010;2023-02-28T00:19:54;3.20;92.20
51175;DHT22;37240;50.104;20.010;2023-02-28T00:24:55;3.20;92.40
51175;DHT22;37240;50.104;20.010;2023-02-28T00:29:55;3.20;92.30
51175;DHT22;37240;50.104;20.010;2023-02-28T00:34:56;3.20;92.70
51175;DHT22;37240;50.104;20.010;2023-02-28T00:39:57;3.20;92.70
51175;DHT22;37240;50.104;20.010;2023-02-28T00:44:57;3.10;93.20
51175;DHT22;37240;50.104;20.010;2023-02-28T00:49:58;3.20;93.20
51175;DHT22;37240;50.104;20.010;2023-02-28T00:54:58;3.10;93.00
51175;DHT22;37240;50.104;20.010;2023-02-28T00:59:59;3.00;92.80
51175;DHT22;37240;50.104;20.010;2023-02-28T01:04:59;3.00;92.70
51175;DHT22;37240;50.104;20.010;2023-02-28T01:10:00;2.80;93.70
51175;DHT22;37240;50.104;20.010;2023-02-28T01:15:00;2.90;93.60
51175;DHT22;37240;50.104;20.010;2023-02-28T01:20:01;2.90;93.70
51175;DHT22;37240;50.104;20.010;2023-02-28T01:25:02;2.90;93.80
51175;DHT22;37240;50.104;20.010;2023-02-28T01:30:03;2.90;94.10
51175;DHT22;37240;50.104;20.010;2023-02-28T01:35:04;2.90;94.60
51175;DHT22;37240;50.104;20.010;2023-02-28T01:40:05;2.80;94.90
51175;DHT22;37240;50.104;20.010;2023-02-28T01:45:28;2.80;95.10
51175;DHT22;37240;50.104;20.010;2023-02-28T01:50:33;2.80;94.70
51175;DHT22;37240;50.104;20.010;2023-02-28T01:55:34;2.80;94.40
51175;DHT22;37240;50.104;20.010;2023-02-28T02:00:35;2.90;94.40
51175;DHT22;37240;50.104;20.010;2023-02-28T02:05:38;2.90;94.40
51175;DHT22;37240;50.104;20.010;2023-02-28T02:10:45;2.80;94.60
51175;DHT22;37240;50.104;20.010;2023-02-28T02:15:54;2.80;94.90
51175;DHT22;37240;50.104;20.010;2023-02-28T02:21:13;2.70;95.20
51175;DHT22;37240;50.104;20.010;2023-02-28T02:31:53;2.70;94.80
51175;DHT22;37240;50.104;20.010;2023-02-28T02:42:01;2.40;95.00
51175;DHT22;37240;50.104;20.010;2023-02-28T02:47:09;2.30;95.20
51175;DHT22;37240;50.104;20.010;2023-02-28T02:52:13;2.30;95.30
51175;DHT22;37240;50.104;20.010;2023-02-28T02:57:19;2.20;95.30
51175;DHT22;37240;50.104;20.010;2023-02-28T03:02:22;2.20;95.30
51175;DHT22;37240;50.104;20.010;2023-02-28T03:07:23;2.20;95.20
51175;DHT22;37240;50.104;20.010;2023-02-28T03:12:32;2.10;95.30
51175;DHT22;37240;50.104;20.010;2023-02-28T03:18:08;2.10;95.60
51175;DHT22;37240;50.104;20.010;2023-02-28T03:23:17;2.20;95.90
51175;DHT22;37240;50.104;20.010;2023-02-28T03:28:48;2.10;96.00
51175;DHT22;37240;50.104;20.010;2023-02-28T03:33:57;2.10;96.20
51175;DHT22;37240;50.104;20.010;2023-02-28T03:39:03;2.00;96.50
51175;DHT22;37240;50.104;20.010;2023-02-28T03:44:15;1.90;96.90
51175;DHT22;37240;50.104;20.010;2023-02-28T03:49:20;2.00;97.20
51175;DHT22;37240;50.104;20.010;2023-02-28T03:54:27;1.90;97.30
51175;DHT22;37240;50.104;20.010;2023-02-28T03:59:52;1.90;97.40
51175;DHT22;37240;50.104;20.010;2023-02-28T04:04:56;1.90;97.40
51175;DHT22;37240;50.104;20.010;2023-02-28T04:09:58;1.80;97.70
51175;DHT22;37240;50.104;20.010;2023-02-28T04:14:59;1.80;97.80
51175;DHT22;37240;50.104;20.010;2023-02-28T04:19:59;1.70;98.10
51175;DHT22;37240;50.104;20.010;2023-02-28T04:25:00;1.70;98.40
51175;DHT22;37240;50.104;20.010;2023-02-28T04:30:00;1.60;98.70
51175;DHT22;37240;50.104;20.010;2023-02-28T04:35:01;1.60;98.70
51175;DHT22;37240;50.104;20.010;2023-02-28T04:40:02;1.50;98.70
51175;DHT22;37240;50.104;20.010;2023-02-28T04:45:03;1.40;99.00
51175;DHT22;37240;50.104;20.010;2023-02-28T04:50:04;1.50;98.60
51175;DHT22;37240;50.104;20.010;2023-02-28T04:55:05;1.60;98.50
51175;DHT22;37240;50.104;20.010;2023-02-28T05:00:06;1.50;98.70
51175;DHT22;37240;50.104;20.010;2023-02-28T05:05:07;1.40;99.00
51175;DHT22;37240;50.104;20.010;2023-02-28T05:10:09;1.40;99.30
51175;DHT22;37240;50.104;20.010;2023-02-28T05:15:13;1.30;99.40
51175;DHT22;37240;50.104;20.010;2023-02-28T05:20:13;1.40;99.30
51175;DHT22;37240;50.104;20.010;2023-02-28T05:25:18;1.40;99.20
51175;DHT22;37240;50.104;20.010;2023-02-28T05:30:19;1.50;99.20
51175;DHT22;37240;50.104;20.010;2023-02-28T05:35:19;1.40;98.90
51175;DHT22;37240;50.104;20.010;2023-02-28T05:40:20;1.40;98.90
51175;DHT22;37240;50.104;20.010;2023-02-28T05:45:21;1.50;98.80
51175;DHT22;37240;50.104;20.010;2023-02-28T05:50:21;1.50;98.70
51175;DHT22;37240;50.104;20.010;2023-02-28T05:55:22;1.60;98.50
51175;DHT22;37240;50.104;20.010;2023-02-28T06:00:23;1.70;98.40
51175;DHT22;37240;50.104;20.010;2023-02-28T06:05:23;1.80;98.20
51175;DHT22;37240;50.104;20.010;2023-02-28T06:10:24;1.90;98.20
51175;DHT22;37240;50.104;20.010;2023-02-28T06:15:24;2.00;97.90
51175;DHT22;37240;50.104;20.010;2023-02-28T06:20:26;2.10;97.80
51175;DHT22;37240;50.104;20.010;2023-02-28T06:25:27;2.30;97.40
51175;DHT22;37240;50.104;20.010;2023-02-28T06:30:28;2.50;97.10
51175;DHT22;37240;50.104;20.010;2023-02-28T06:35:28;2.70;96.70
51175;DHT22;37240;50.104;20.010;2023-02-28T06:40:29;2.90;96.40
51175;DHT22;37240;50.104;20.010;2023-02-28T06:45:29;3.00;96.20
51175;DHT22;37240;50.104;20.010;2023-02-28T06:50:30;2.90;96.40
51175;DHT22;37240;50.104;20.010;2023-02-28T06:55:31;3.00;96.10
51175;DHT22;37240;50.104;20.010;2023-02-28T07:00:31;3.20;95.50
51175;DHT22;37240;50.104;20.010;2023-02-28T07:05:35;3.00;95.40
51175;DHT22;37240;50.104;20.010;2023-02-28T07:10:39;2.80;95.50
51175;DHT22;37240;50.104;20.010;2023-02-28T07:15:40;2.60;95.80
51175;DHT22;37240;50.104;20.010;2023-02-28T07:20:40;2.70;96.00
51175;DHT22;37240;50.104;20.010;2023-02-28T07:25:41;2.90;95.80
51175;DHT22;37240;50.104;20.010;2023-02-28T07:30:42;3.20;95.10
51175;DHT22;37240;50.104;20.010;2023-02-28T07:35:42;3.20;94.70
51175;DHT22;37240;50.104;20.010;2023-02-28T07:40:43;3.10;94.80
51175;DHT22;37240;50.104;20.010;2023-02-28T07:45:43;3.30;94.00
51175;DHT22;37240;50.104;20.010;2023-02-28T07:50:44;3.50;93.60
51175;DHT22;37240;50.104;20.010;2023-02-28T07:55:44;3.50;93.20
51175;DHT22;37240;50.104;20.010;2023-02-28T08:00:45;3.50;92.70
51175;DHT22;37240;50.104;20.010;2023-02-28T08:05:46;3.60;92.60
51175;DHT22;37240;50.104;20.010;2023-02-28T08:10:47;3.70;91.90
51175;DHT22;37240;50.104;20.010;2023-02-28T08:15:47;3.70;92.00
51175;DHT22;37240;50.104;20.010;2023-02-28T08:20:48;4.00;90.50
51175;DHT22;37240;50.104;20.010;2023-02-28T08:25:57;4.00;90.10
51175;DHT22;37240;50.104;20.010;2023-02-28T08:30:58;4.20;89.30
51175;DHT22;37240;50.104;20.010;2023-02-28T08:35:58;4.20;88.60
51175;DHT22;37240;50.104;20.010;2023-02-28T08:41:00;4.20;84.20
51175;DHT22;37240;50.104;20.010;2023-02-28T08:46:02;4.30;84.50
51175;DHT22;37240;50.104;20.010;2023-02-28T08:51:08;4.40;82.80
51175;DHT22;37240;50.104;20.010;2023-02-28T08:56:13;4.60;80.20
51175;DHT22;37240;50.104;20.010;2023-02-28T09:01:26;4.70;75.10
51175;DHT22;37240;50.104;20.010;2023-02-28T09:06:27;4.80;74.80
51175;DHT22;37240;50.104;20.010;2023-02-28T09:11:28;4.90;73.20
51175;DHT22;37240;50.104;20.010;2023-02-28T09:16:31;5.00;74.00
51175;DHT22;37240;50.104;20.010;2023-02-28T09:21:32;5.60;70.50
51175;DHT22;37240;50.104;20.010;2023-02-28T09:26:33;5.80;67.60
51175;DHT22;37240;50.104;20.010;2023-02-28T09:31:34;5.80;63.10
51175;DHT22;37240;50.104;20.010;2023-02-28T09:36:35;6.00;64.10
51175;DHT22;37240;50.104;20.010;2023-02-28T09:41:39;6.10;63.00
51175;DHT22;37240;50.104;20.010;2023-02-28T09:46:43;6.00;62.20
51175;DHT22;37240;50.104;20.010;2023-02-28T09:51:53;6.00;63.70
51175;DHT22;37240;50.104;20.010;2023-02-28T09:57:01;6.10;63.80
51175;DHT22;37240;50.104;20.010;2023-02-28T10:02:15;6.10;63.30
51175;DHT22;37240;50.104;20.010;2023-02-28T10:07:41;6.10;63.80
51175;DHT22;37240;50.104;20.010;2023-02-28T10:12:41;5.90;63.30
51175;DHT22;37240;50.104;20.010;2023-02-28T10:17:47;5.80;64.80
51175;DHT22;37240;50.104;20.010;2023-02-28T10:22:57;5.50;65.60
51175;DHT22;37240;50.104;20.010;2023-02-28T10:28:15;5.60;66.30
51175;DHT22;37240;50.104;20.010;2023-02-28T10:33:22;5.50;64.30
51175;DHT22;37240;50.104;20.010;2023-02-28T10:38:31;5.40;64.40
51175;DHT22;37240;50.104;20.010;2023-02-28T10:43:33;5.40;64.30
51175;DHT22;37240;50.104;20.010;2023-02-28T10:48:39;5.20;64.70
51175;DHT22;37240;50.104;20.010;2023-02-28T10:53:49;5.10;64.90
51175;DHT22;37240;50.104;20.010;2023-02-28T11:03:54;5.10;68.50
51175;DHT22;37240;50.104;20.010;2023-02-28T11:08:56;5.10;66.50
51175;DHT22;37240;50.104;20.010;2023-02-28T11:14:04;5.20;68.10
51175;DHT22;37240;50.104;20.010;2023-02-28T11:19:18;5.00;68.70
51175;DHT22;37240;50.104;20.010;2023-02-28T11:24:30;4.80;69.20
51175;DHT22;37240;50.104;20.010;2023-02-28T11:29:33;4.70;68.90
51175;DHT22;37240;50.104;20.010;2023-02-28T11:34:35;4.70;70.00
51175;DHT22;37240;50.104;20.010;2023-02-28T11:39:36;4.70;69.20
51175;DHT22;37240;50.104;20.010;2023-02-28T11:55:35;4.80;70.00
51175;DHT22;37240;50.104;20.010;2023-02-28T12:11:48;4.50;72.70
51175;DHT22;37240;50.104;20.010;2023-02-28T12:22:27;4.60;70.40
51175;DHT22;37240;50.104;20.010;2023-02-28T12:27:30;4.70;70.80
51175;DHT22;37240;50.104;20.010;2023-02-28T12:32:39;4.60;71.40
51175;DHT22;37240;50.104;20.010;2023-02-28T12:37:57;4.70;71.50
51175;DHT22;37240;50.104;20.010;2023-02-28T12:43:03;4.80;72.80
51175;DHT22;37240;50.104;20.010;2023-02-28T12:48:07;4.90;72.00
51175;DHT22;37240;50.104;20.010;2023-02-28T12:53:21;4.80;71.30
51175;DHT22;37240;50.104;20.010;2023-02-28T12:58:31;4.90;70.80
51175;DHT22;37240;50.104;20.010;2023-02-28T13:03:41;4.90;72.20
51175;DHT22;37240;50.104;20.010;2023-02-28T13:09:09;5.00;72.20
51175;DHT22;37240;50.104;20.010;2023-02-28T13:19:46;5.20;72.60
51175;DHT22;37240;50.104;20.010;2023-02-28T13:24:56;5.30;72.20
51175;DHT22;37240;50.104;20.010;2023-02-28T13:29:57;5.30;71.50
51175;DHT22;37240;50.104;20.010;2023-02-28T13:40:26;5.20;74.40
51175;DHT22;37240;50.104;20.010;2023-02-28T13:45:28;5.20;75.50
51175;DHT22;37240;50.104;20.010;2023-02-28T13:50:32;5.20;73.10
51175;DHT22;37240;50.104;20.010;2023-02-28T13:56:09;5.10;72.90
51175;DHT22;37240;50.104;20.010;2023-02-28T14:01:41;5.10;72.20
51175;DHT22;37240;50.104;20.010;2023-02-28T14:06:51;5.20;74.80
51175;DHT22;37240;50.104;20.010;2023-02-28T14:11:52;5.00;76.10
51175;DHT22;37240;50.104;20.010;2023-02-28T14:16:53;4.80;76.60
51175;DHT22;37240;50.104;20.010;2023-02-28T14:44:00;4.70;77.00
51175;DHT22;37240;50.104;20.010;2023-02-28T14:49:01;4.80;77.70
51175;DHT22;37240;50.104;20.010;2023-02-28T14:54:03;4.80;78.00
51175;DHT22;37240;50.104;20.010;2023-02-28T14:59:17;4.60;78.60
51175;DHT22;37240;50.104;20.010;2023-02-28T15:04:26;4.80;79.40
51175;DHT22;37240;50.104;20.010;2023-02-28T15:09:27;4.80;78.80
51175;DHT22;37240;50.104;20.010;2023-02-28T15:14:28;4.90;78.30
51175;DHT22;37240;50.104;20.010;2023-02-28T15:19:36;4.90;78.50
51175;DHT22;37240;50.104;20.010;2023-02-28T15:24:51;4.90;78.00
51175;DHT22;37240;50.104;20.010;2023-02-28T15:30:11;4.70;77.90
51175;DHT22;37240;50.104;20.010;2023-02-28T15:40:36;4.80;79.10
51175;DHT22;37240;50.104;20.010;2023-02-28T15:45:44;4.80;77.40
51175;DHT22;37240;50.104;20.010;2023-02-28T15:50:55;4.60;78.60
51175;DHT22;37240;50.104;20.010;2023-02-28T15:56:05;4.50;80.00
51175;DHT22;37240;50.104;20.010;2023-02-28T16:01:24;4.50;79.70
51175;DHT22;37240;50.104;20.010;2023-02-28T16:07:04;4.40;80.20
51175;DHT22;37240;50.104;20.010;2023-02-28T16:12:08;4.40;80.10
51175;DHT22;37240;50.104;20.010;2023-02-28T16:17:24;4.40;80.60
51175;DHT22;37240;50.104;20.010;2023-02-28T16:22:25;4.40;80.90
51175;DHT22;37240;50.104;20.010;2023-02-28T16:27:30;4.40;81.80
51175;DHT22;37240;50.104;20.010;2023-02-28T16:32:33;4.20;82.50
51175;DHT22;37240;50.104;20.010;2023-02-28T16:37:35;4.20;83.00
51175;DHT22;37240;50.104;20.010;2023-02-28T16:42:37;4.20;83.70
51175;DHT22;37240;50.104;20.010;2023-02-28T16:47:38;4.10;84.00
51175;DHT22;37240;50.104;20.010;2023-02-28T16:52:39;4.10;84.40
51175;DHT22;37240;50.104;20.010;2023-02-28T16:57:40;4.10;84.80
51175;DHT22;37240;50.104;20.010;2023-02-28T17:02:41;4.10;84.70
51175;DHT22;37240;50.104;20.010;2023-02-28T17:07:42;4.10;84.60
51175;DHT22;37240;50.104;20.010;2023-02-28T17:12:43;4.10;84.80
51175;DHT22;37240;50.104;20.010;2023-02-28T17:17:45;4.10;85.20
51175;DHT22;37240;50.104;20.010;2023-02-28T17:22:45;4.10;85.70
51175;DHT22;37240;50.104;20.010;2023-02-28T17:27:46;4.10;85.50
51175;DHT22;37240;50.104;20.010;2023-02-28T17:32:47;4.10;85.60
51175;DHT22;37240;50.104;20.010;2023-02-28T17:37:47;4.10;85.70
51175;DHT22;37240;50.104;20.010;2023-02-28T17:42:48;4.10;85.80
51175;DHT22;37240;50.104;20.010;2023-02-28T17:47:49;4.10;85.90
51175;DHT22;37240;50.104;20.010;2023-02-28T17:52:50;4.10;86.30
51175;DHT22;37240;50.104;20.010;2023-02-28T17:57:50;4.00;86.50
51175;DHT22;37240;50.104;20.010;2023-02-28T18:02:51;4.00;86.90
51175;DHT22;37240;50.104;20.010;2023-02-28T18:07:51;3.90;87.70
51175;DHT22;37240;50.104;20.010;2023-02-28T18:12:53;3.90;88.30
51175;DHT22;37240;50.104;20.010;2023-02-28T18:17:53;3.80;88.90
51175;DHT22;37240;50.104;20.010;2023-02-28T18:22:54;3.80;89.70
51175;DHT22;37240;50.104;20.010;2023-02-28T18:27:54;3.80;90.00
51175;DHT22;37240;50.104;20.010;2023-02-28T18:32:56;3.70;90.10
51175;DHT22;37240;50.104;20.010;2023-02-28T18:37:57;3.80;90.30
51175;DHT22;37240;50.104;20.010;2023-02-28T18:42:57;3.80;90.40
51175;DHT22;37240;50.104;20.010;2023-02-28T18:47:58;3.80;90.50
51175;DHT22;37240;50.104;20.010;2023-02-28T18:52:58;3.80;90.50
51175;DHT22;37240;50.104;20.010;2023-02-28T18:57:59;3.80;90.40
51175;DHT22;37240;50.104;20.010;2023-02-28T19:03:00;3.70;90.50
51175;DHT22;37240;50.104;20.010;2023-02-28T19:08:01;3.70;90.90
51175;DHT22;37240;50.104;20.010;2023-02-28T19:13:01;3.70;90.70
51175;DHT22;37240;50.104;20.010;2023-02-28T19:18:02;3.60;91.00
51175;DHT22;37240;50.104;20.010;2023-02-28T19:23:02;3.60;90.90
51175;DHT22;37240;50.104;20.010;2023-02-28T19:28:03;3.60;91.30
51175;DHT22;37240;50.104;20.010;2023-02-28T19:33:03;3.60;91.50
51175;DHT22;37240;50.104;20.010;2023-02-28T19:38:04;3.50;91.60
51175;DHT22;37240;50.104;20.010;2023-02-28T19:43:05;3.50;91.90
51175;DHT22;37240;50.104;20.010;2023-02-28T19:48:05;3.50;92.00
51175;DHT22;37240;50.104;20.010;2023-02-28T19:53:06;3.50;91.70
51175;DHT22;37240;50.104;20.010;2023-02-28T19:58:06;3.50;91.70
51175;DHT22;37240;50.104;20.010;2023-02-28T20:03:07;3.50;92.10
51175;DHT22;37240;50.104;20.010;2023-02-28T20:08:07;3.40;92.60
51175;DHT22;37240;50.104;20.010;2023-02-28T20:13:08;3.40;93.30
51175;DHT22;37240;50.104;20.010;2023-02-28T20:18:09;3.30;93.50
51175;DHT22;37240;50.104;20.010;2023-02-28T20:23:09;3.20;94.70
51175;DHT22;37240;50.104;20.010;2023-02-28T20:28:10;3.10;95.50
51175;DHT22;37240;50.104;20.010;2023-02-28T20:33:10;3.20;95.30
51175;DHT22;37240;50.104;20.010;2023-02-28T20:38:11;3.10;95.20
51175;DHT22;37240;50.104;20.010;2023-02-28T20:43:11;3.10;94.50
51175;DHT22;37240;50.104;20.010;2023-02-28T20:48:12;3.20;94.40
51175;DHT22;37240;50.104;20.010;2023-02-28T20:53:13;3.10;94.10
51175;DHT22;37240;50.104;20.010;2023-02-28T20:58:13;3.10;94.30
51175;DHT22;37240;50.104;20.010;2023-02-28T21:03:14;3.20;94.30
51175;DHT22;37240;50.104;20.010;2023-02-28T21:08:14;3.10;94.10
51175;DHT22;37240;50.104;20.010;2023-02-28T21:13:15;3.10;94.10
51175;DHT22;37240;50.104;20.010;2023-02-28T21:18:16;3.10;94.30
51175;DHT22;37240;50.104;20.010;2023-02-28T21:23:16;3.10;95.00
51175;DHT22;37240;50.104;20.010;2023-02-28T21:28:17;3.00;95.20
51175;DHT22;37240;50.104;20.010;2023-02-28T21:33:17;3.00;95.20
51175;DHT22;37240;50.104;20.010;2023-02-28T21:38:18;2.90;95.10
51175;DHT22;37240;50.104;20.010;2023-02-28T21:43:18;2.90;95.20
51175;DHT22;37240;50.104;20.010;2023-02-28T21:48:19;2.90;96.00
51175;DHT22;37240;50.104;20.010;2023-02-28T21:53:19;2.80;96.30
51175;DHT22;37240;50.104;20.010;2023-02-28T21:58:20;2.80;95.60
51175;DHT22;37240;50.104;20.010;2023-02-28T22:03:20;2.80;95.30
51175;DHT22;37240;50.104;20.010;2023-02-28T22:08:21;2.80;95.20
51175;DHT22;37240;50.104;20.010;2023-02-28T22:13:21;2.80;95.20
51175;DHT22;37240;50.104;20.010;2023-02-28T22:18:22;2.80;95.40
51175;DHT22;37240;50.104;20.010;2023-02-28T22:23:23;2.70;95.60
51175;DHT22;37240;50.104;20.010;2023-02-28T22:28:23;2.70;96.00
51175;DHT22;37240;50.104;20.010;2023-02-28T22:33:25;2.70;96.20
51175;DHT22;37240;50.104;20.010;2023-02-28T22:38:26;2.80;95.90
51175;DHT22;37240;50.104;20.010;2023-02-28T22:43:26;2.70;95.80
51175;DHT22;37240;50.104;20.010;2023-02-28T22:48:27;2.60;96.00
51175;DHT22;37240;50.104;20.010;2023-02-28T22:53:29;2.60;96.30
51175;DHT22;37240;50.104;20.010;2023-02-28T22:58:30;2.60;96.40
51175;DHT22;37240;50.104;20.010;2023-02-28T23:03:31;2.60;96.30
51175;DHT22;37240;50.104;20.010;2023-02-28T23:08:32;2.50;96.50
51175;DHT22;37240;50.104;20.010;2023-02-28T23:13:32;2.50;96.90
51175;DHT22;37240;50.104;20.010;2023-02-28T23:18:33;2.50;96.80
51175;DHT22;37240;50.104;20.010;2023-02-28T23:23:34;2.50;96.70
51175;DHT22;37240;50.104;20.010;2023-02-28T23:28:34;2.50;96.60
51175;DHT22;37240;50.104;20.010;2023-02-28T23:33:35;2.50;96.80
51175;DHT22;37240;50.104;20.010;2023-02-28T23:38:37;2.40;97.00
51175;DHT22;37240;50.104;20.010;2023-02-28T23:43:38;2.40;96.90
51175;DHT22;37240;50.104;20.010;2023-02-28T23:48:39;2.40;97.00
51175;DHT22;37240;50.104;20.010;2023-02-28T23:53:42;2.30;97.10
51175;DHT22;37240;50.104;20.010;2023-02-28T23:58:45;2.30;97.20
